sensor_id;sensor_type;location;lat;lon;timestamp;P1;durP1;ratioP1;P2;durP2;ratioP2
60973;SDS011;46846;51.528;5.076;2023-05-24T00:01:05;311.35;;;295.73;;
60973;SDS011;46846;51.528;5.076;2023-05-24T00:03:31;306.77;;;291.13;;
60973;SDS011;46846;51.528;5.076;2023-05-24T00:05:59;312.75;;;296.80;;
60973;SDS011;46846;51.528;5.076;2023-05-24T00:08:25;303.85;;;287.73;;
60973;SDS011;46846;51.528;5.076;2023-05-24T00:10:51;313.55;;;297.05;;
60973;SDS011;46846;51.528;5.076;2023-05-24T00:13:16;323.38;;;306.48;;
60973;SDS011;46846;51.528;5.076;2023-05-24T00:15:42;303.63;;;288.15;;
60973;SDS011;46846;51.528;5.076;2023-05-24T00:18:07;318.63;;;302.38;;
60973;SDS011;46846;51.528;5.076;2023-05-24T00:20:33;295.55;;;280.65;;
60973;SDS011;46846;51.528;5.076;2023-05-24T00:22:58;304.08;;;288.88;;
60973;SDS011;46846;51.528;5.076;2023-05-24T00:25:23;318.75;;;302.23;;
60973;SDS011;46846;51.528;5.076;2023-05-24T00:27:49;313.52;;;297.20;;
60973;SDS011;46846;51.528;5.076;2023-05-24T00:30:14;301.75;;;286.42;;
60973;SDS011;46846;51.528;5.076;2023-05-24T00:32:40;307.35;;;291.88;;
60973;SDS011;46846;51.528;5.076;2023-05-24T00:35:05;289.52;;;274.55;;
60973;SDS011;46846;51.528;5.076;2023-05-24T00:37:31;302.70;;;287.48;;
60973;SDS011;46846;51.528;5.076;2023-05-24T00:39:57;305.42;;;289.40;;
60973;SDS011;46846;51.528;5.076;2023-05-24T00:42:22;304.45;;;288.60;;
60973;SDS011;46846;51.528;5.076;2023-05-24T00:44:47;285.05;;;270.20;;
60973;SDS011;46846;51.528;5.076;2023-05-24T00:47:13;301.15;;;285.73;;
60973;SDS011;46846;51.528;5.076;2023-05-24T00:49:39;307.83;;;291.60;;
60973;SDS011;46846;51.528;5.076;2023-05-24T00:52:05;290.40;;;275.60;;
60973;SDS011;46846;51.528;5.076;2023-05-24T00:54:32;284.95;;;270.25;;
60973;SDS011;46846;51.528;5.076;2023-05-24T00:56:58;283.13;;;268.42;;
60973;SDS011;46846;51.528;5.076;2023-05-24T00:59:24;306.58;;;290.73;;
60973;SDS011;46846;51.528;5.076;2023-05-24T01:01:50;291.60;;;276.67;;
60973;SDS011;46846;51.528;5.076;2023-05-24T01:04:16;295.42;;;279.98;;
60973;SDS011;46846;51.528;5.076;2023-05-24T01:06:57;289.20;;;273.95;;
60973;SDS011;46846;51.528;5.076;2023-05-24T01:12:18;304.15;;;288.80;;
60973;SDS011;46846;51.528;5.076;2023-05-24T01:15:06;297.63;;;282.27;;
60973;SDS011;46846;51.528;5.076;2023-05-24T01:20:10;281.75;;;267.40;;
60973;SDS011;46846;51.528;5.076;2023-05-24T01:25:45;291.95;;;277.20;;
60973;SDS011;46846;51.528;5.076;2023-05-24T01:28:13;303.17;;;287.20;;
60973;SDS011;46846;51.528;5.076;2023-05-24T01:30:41;278.67;;;263.98;;
60973;SDS011;46846;51.528;5.076;2023-05-24T01:33:08;287.55;;;272.20;;
60973;SDS011;46846;51.528;5.076;2023-05-24T01:35:34;290.85;;;275.65;;
60973;SDS011;46846;51.528;5.076;2023-05-24T01:38:07;275.67;;;261.67;;
60973;SDS011;46846;51.528;5.076;2023-05-24T01:40:36;290.65;;;275.30;;
60973;SDS011;46846;51.528;5.076;2023-05-24T01:45:38;289.33;;;273.75;;
60973;SDS011;46846;51.528;5.076;2023-05-24T01:48:18;292.42;;;277.33;;
60973;SDS011;46846;51.528;5.076;2023-05-24T01:50:48;283.25;;;268.65;;
60973;SDS011;46846;51.528;5.076;2023-05-24T01:53:19;271.58;;;257.65;;
60973;SDS011;46846;51.528;5.076;2023-05-24T01:55:47;297.55;;;282.67;;
60973;SDS011;46846;51.528;5.076;2023-05-24T01:58:15;271.42;;;257.73;;
60973;SDS011;46846;51.528;5.076;2023-05-24T02:00:45;292.42;;;277.50;;
60973;SDS011;46846;51.528;5.076;2023-05-24T02:03:12;271.60;;;257.52;;
60973;SDS011;46846;51.528;5.076;2023-05-24T02:05:38;279.73;;;265.27;;
60973;SDS011;46846;51.528;5.076;2023-05-24T02:08:04;273.50;;;259.20;;
60973;SDS011;46846;51.528;5.076;2023-05-24T02:10:29;276.55;;;262.48;;
60973;SDS011;46846;51.528;5.076;2023-05-24T02:12:55;269.13;;;254.98;;
60973;SDS011;46846;51.528;5.076;2023-05-24T02:15:20;289.15;;;274.20;;
60973;SDS011;46846;51.528;5.076;2023-05-24T02:17:46;270.00;;;255.95;;
60973;SDS011;46846;51.528;5.076;2023-05-24T02:20:12;274.98;;;260.75;;
60973;SDS011;46846;51.528;5.076;2023-05-24T02:22:37;282.13;;;267.83;;
60973;SDS011;46846;51.528;5.076;2023-05-24T02:25:03;273.70;;;259.50;;
60973;SDS011;46846;51.528;5.076;2023-05-24T02:27:28;274.98;;;260.42;;
60973;SDS011;46846;51.528;5.076;2023-05-24T02:29:54;284.55;;;270.05;;
60973;SDS011;46846;51.528;5.076;2023-05-24T02:32:19;291.80;;;276.80;;
60973;SDS011;46846;51.528;5.076;2023-05-24T02:39:39;247.23;;;233.98;;
60973;SDS011;46846;51.528;5.076;2023-05-24T02:42:05;259.88;;;246.43;;
60973;SDS011;46846;51.528;5.076;2023-05-24T02:44:32;260.13;;;246.82;;
60973;SDS011;46846;51.528;5.076;2023-05-24T02:46:58;275.30;;;260.38;;
60973;SDS011;46846;51.528;5.076;2023-05-24T02:49:23;267.65;;;254.05;;
60973;SDS011;46846;51.528;5.076;2023-05-24T02:51:49;276.67;;;262.70;;
60973;SDS011;46846;51.528;5.076;2023-05-24T02:54:15;260.85;;;247.52;;
60973;SDS011;46846;51.528;5.076;2023-05-24T02:56:41;278.02;;;263.58;;
60973;SDS011;46846;51.528;5.076;2023-05-24T02:59:07;263.92;;;250.50;;
60973;SDS011;46846;51.528;5.076;2023-05-24T03:06:23;249.05;;;236.10;;
60973;SDS011;46846;51.528;5.076;2023-05-24T03:13:40;249.00;;;235.93;;
60973;SDS011;46846;51.528;5.076;2023-05-24T03:16:06;246.90;;;233.98;;
60973;SDS011;46846;51.528;5.076;2023-05-24T03:20:57;250.82;;;237.82;;
60973;SDS011;46846;51.528;5.076;2023-05-24T03:23:22;254.63;;;241.40;;
60973;SDS011;46846;51.528;5.076;2023-05-24T03:33:04;238.63;;;226.55;;
60973;SDS011;46846;51.528;5.076;2023-05-24T03:40:20;237.30;;;224.60;;
60973;SDS011;46846;51.528;5.076;2023-05-24T03:42:46;246.55;;;233.80;;
60973;SDS011;46846;51.528;5.076;2023-05-24T03:45:11;256.90;;;243.27;;
60973;SDS011;46846;51.528;5.076;2023-05-24T03:47:36;246.68;;;233.75;;
60973;SDS011;46846;51.528;5.076;2023-05-24T03:50:02;253.20;;;238.93;;
60973;SDS011;46846;51.528;5.076;2023-05-24T03:54:53;255.87;;;242.40;;
60973;SDS011;46846;51.528;5.076;2023-05-24T03:59:44;231.57;;;219.57;;
60973;SDS011;46846;51.528;5.076;2023-05-24T04:02:09;241.35;;;228.23;;
60973;SDS011;46846;51.528;5.076;2023-05-24T04:04:35;255.30;;;242.00;;
60973;SDS011;46846;51.528;5.076;2023-05-24T04:07:01;252.57;;;239.23;;
60973;SDS011;46846;51.528;5.076;2023-05-24T04:09:27;265.63;;;251.63;;
60973;SDS011;46846;51.528;5.076;2023-05-24T04:11:53;256.48;;;243.48;;
60973;SDS011;46846;51.528;5.076;2023-05-24T04:14:18;258.15;;;244.50;;
60973;SDS011;46846;51.528;5.076;2023-05-24T04:16:43;264.30;;;250.75;;
60973;SDS011;46846;51.528;5.076;2023-05-24T04:24:00;241.90;;;228.95;;
60973;SDS011;46846;51.528;5.076;2023-05-24T04:28:52;235.85;;;223.13;;
60973;SDS011;46846;51.528;5.076;2023-05-24T04:31:17;239.70;;;227.23;;
60973;SDS011;46846;51.528;5.076;2023-05-24T04:33:44;247.70;;;234.80;;
60973;SDS011;46846;51.528;5.076;2023-05-24T04:36:09;250.80;;;237.57;;
60973;SDS011;46846;51.528;5.076;2023-05-24T04:38:36;240.13;;;227.50;;
60973;SDS011;46846;51.528;5.076;2023-05-24T04:41:02;245.48;;;232.45;;
60973;SDS011;46846;51.528;5.076;2023-05-24T04:43:29;243.20;;;230.43;;
60973;SDS011;46846;51.528;5.076;2023-05-24T04:45:56;255.57;;;242.35;;
60973;SDS011;46846;51.528;5.076;2023-05-24T04:50:51;229.35;;;217.30;;
60973;SDS011;46846;51.528;5.076;2023-05-24T04:53:18;251.13;;;238.02;;
60973;SDS011;46846;51.528;5.076;2023-05-24T04:55:44;235.18;;;223.00;;
60973;SDS011;46846;51.528;5.076;2023-05-24T04:58:10;260.17;;;246.55;;
60973;SDS011;46846;51.528;5.076;2023-05-24T05:00:36;243.32;;;230.35;;
60973;SDS011;46846;51.528;5.076;2023-05-24T05:03:01;242.82;;;229.68;;
60973;SDS011;46846;51.528;5.076;2023-05-24T05:05:27;237.60;;;224.95;;
60973;SDS011;46846;51.528;5.076;2023-05-24T05:07:53;263.77;;;249.82;;
60973;SDS011;46846;51.528;5.076;2023-05-24T05:10:18;234.38;;;222.25;;
60973;SDS011;46846;51.528;5.076;2023-05-24T05:12:44;240.40;;;227.48;;
60973;SDS011;46846;51.528;5.076;2023-05-24T05:24:50;232.47;;;219.90;;
60973;SDS011;46846;51.528;5.076;2023-05-24T05:27:17;250.63;;;236.95;;
60973;SDS011;46846;51.528;5.076;2023-05-24T05:29:42;227.40;;;215.07;;
60973;SDS011;46846;51.528;5.076;2023-05-24T05:32:08;237.30;;;224.43;;
60973;SDS011;46846;51.528;5.076;2023-05-24T05:36:58;231.17;;;218.73;;
60973;SDS011;46846;51.528;5.076;2023-05-24T05:41:49;230.73;;;218.45;;
60973;SDS011;46846;51.528;5.076;2023-05-24T05:46:40;235.40;;;222.98;;
60973;SDS011;46846;51.528;5.076;2023-05-24T05:49:07;237.32;;;225.10;;
60973;SDS011;46846;51.528;5.076;2023-05-24T05:51:33;239.82;;;226.27;;
60973;SDS011;46846;51.528;5.076;2023-05-24T05:58:51;229.20;;;217.38;;
60973;SDS011;46846;51.528;5.076;2023-05-24T06:01:16;224.45;;;212.80;;
60973;SDS011;46846;51.528;5.076;2023-05-24T06:03:42;235.60;;;223.07;;
60973;SDS011;46846;51.528;5.076;2023-05-24T06:06:07;251.45;;;238.35;;
60973;SDS011;46846;51.528;5.076;2023-05-24T06:13:24;233.50;;;221.27;;
60973;SDS011;46846;51.528;5.076;2023-05-24T06:15:52;234.95;;;222.55;;
60973;SDS011;46846;51.528;5.076;2023-05-24T06:18:20;251.02;;;237.65;;
60973;SDS011;46846;51.528;5.076;2023-05-24T06:30:28;231.30;;;219.07;;
60973;SDS011;46846;51.528;5.076;2023-05-24T06:37:44;209.30;;;198.30;;
60973;SDS011;46846;51.528;5.076;2023-05-24T06:42:35;227.65;;;214.60;;
60973;SDS011;46846;51.528;5.076;2023-05-24T06:47:26;242.23;;;229.27;;
60973;SDS011;46846;51.528;5.076;2023-05-24T06:49:51;223.18;;;211.00;;
60973;SDS011;46846;51.528;5.076;2023-05-24T06:54:43;235.88;;;223.63;;
60973;SDS011;46846;51.528;5.076;2023-05-24T06:57:08;232.82;;;220.57;;
60973;SDS011;46846;51.528;5.076;2023-05-24T07:01:59;252.20;;;239.15;;
60973;SDS011;46846;51.528;5.076;2023-05-24T07:04:25;262.60;;;248.32;;
60973;SDS011;46846;51.528;5.076;2023-05-24T07:06:52;247.07;;;233.25;;
60973;SDS011;46846;51.528;5.076;2023-05-24T07:09:17;252.55;;;239.55;;
60973;SDS011;46846;51.528;5.076;2023-05-24T07:11:43;251.15;;;237.50;;
60973;SDS011;46846;51.528;5.076;2023-05-24T07:16:34;228.43;;;215.98;;
60973;SDS011;46846;51.528;5.076;2023-05-24T07:19:00;241.10;;;228.23;;
60973;SDS011;46846;51.528;5.076;2023-05-24T07:21:26;256.50;;;243.18;;
60973;SDS011;46846;51.528;5.076;2023-05-24T07:23:52;259.98;;;246.18;;
60973;SDS011;46846;51.528;5.076;2023-05-24T07:26:17;251.80;;;238.45;;
60973;SDS011;46846;51.528;5.076;2023-05-24T07:28:43;275.65;;;260.08;;
60973;SDS011;46846;51.528;5.076;2023-05-24T07:31:08;263.15;;;249.38;;
60973;SDS011;46846;51.528;5.076;2023-05-24T07:33:37;265.83;;;252.02;;
60973;SDS011;46846;51.528;5.076;2023-05-24T07:36:03;256.90;;;243.02;;
60973;SDS011;46846;51.528;5.076;2023-05-24T07:38:30;279.08;;;264.23;;
60973;SDS011;46846;51.528;5.076;2023-05-24T07:40:57;254.50;;;241.23;;
60973;SDS011;46846;51.528;5.076;2023-05-24T07:43:24;254.57;;;241.18;;
60973;SDS011;46846;51.528;5.076;2023-05-24T07:45:51;273.65;;;259.42;;
60973;SDS011;46846;51.528;5.076;2023-05-24T07:48:16;251.50;;;238.23;;
60973;SDS011;46846;51.528;5.076;2023-05-24T07:50:43;269.40;;;255.25;;
60973;SDS011;46846;51.528;5.076;2023-05-24T07:53:15;258.63;;;245.25;;
60973;SDS011;46846;51.528;5.076;2023-05-24T07:55:40;274.67;;;260.13;;
60973;SDS011;46846;51.528;5.076;2023-05-24T07:58:06;265.25;;;251.77;;
60973;SDS011;46846;51.528;5.076;2023-05-24T08:02:57;249.55;;;236.45;;
60973;SDS011;46846;51.528;5.076;2023-05-24T08:07:48;268.58;;;254.65;;
60973;SDS011;46846;51.528;5.076;2023-05-24T08:10:14;287.33;;;272.38;;
60973;SDS011;46846;51.528;5.076;2023-05-24T08:12:40;260.85;;;247.45;;
60973;SDS011;46846;51.528;5.076;2023-05-24T08:15:06;281.13;;;266.75;;
60973;SDS011;46846;51.528;5.076;2023-05-24T08:17:32;289.50;;;274.42;;
60973;SDS011;46846;51.528;5.076;2023-05-24T08:19:58;286.35;;;271.77;;
60973;SDS011;46846;51.528;5.076;2023-05-24T08:22:23;295.13;;;280.00;;
60973;SDS011;46846;51.528;5.076;2023-05-24T08:24:48;280.48;;;265.42;;
60973;SDS011;46846;51.528;5.076;2023-05-24T08:27:14;270.40;;;256.52;;
60973;SDS011;46846;51.528;5.076;2023-05-24T08:29:39;296.25;;;280.15;;
60973;SDS011;46846;51.528;5.076;2023-05-24T08:32:05;282.92;;;268.42;;
60973;SDS011;46846;51.528;5.076;2023-05-24T08:34:34;290.95;;;275.98;;
60973;SDS011;46846;51.528;5.076;2023-05-24T08:37:01;282.40;;;267.50;;
60973;SDS011;46846;51.528;5.076;2023-05-24T08:39:27;298.92;;;283.60;;
60973;SDS011;46846;51.528;5.076;2023-05-24T08:41:52;295.92;;;280.77;;
60973;SDS011;46846;51.528;5.076;2023-05-24T08:44:19;296.50;;;280.55;;
60973;SDS011;46846;51.528;5.076;2023-05-24T08:46:46;292.55;;;277.38;;
60973;SDS011;46846;51.528;5.076;2023-05-24T08:49:13;286.80;;;271.27;;
60973;SDS011;46846;51.528;5.076;2023-05-24T08:51:39;292.15;;;276.95;;
60973;SDS011;46846;51.528;5.076;2023-05-24T08:54:04;304.38;;;288.70;;
60973;SDS011;46846;51.528;5.076;2023-05-24T08:56:31;308.63;;;292.20;;
60973;SDS011;46846;51.528;5.076;2023-05-24T08:58:58;294.85;;;279.40;;
60973;SDS011;46846;51.528;5.076;2023-05-24T09:01:23;306.77;;;291.13;;
60973;SDS011;46846;51.528;5.076;2023-05-24T09:03:49;313.92;;;297.75;;
60973;SDS011;46846;51.528;5.076;2023-05-24T09:06:16;318.77;;;302.33;;
60973;SDS011;46846;51.528;5.076;2023-05-24T09:08:42;313.70;;;297.17;;
60973;SDS011;46846;51.528;5.076;2023-05-24T09:11:14;305.45;;;290.10;;
60973;SDS011;46846;51.528;5.076;2023-05-24T09:13:40;307.35;;;291.38;;
60973;SDS011;46846;51.528;5.076;2023-05-24T09:16:08;323.55;;;306.92;;
60973;SDS011;46846;51.528;5.076;2023-05-24T09:18:34;314.13;;;298.00;;
60973;SDS011;46846;51.528;5.076;2023-05-24T09:20:59;301.35;;;286.02;;
60973;SDS011;46846;51.528;5.076;2023-05-24T09:23:25;325.85;;;309.20;;
60973;SDS011;46846;51.528;5.076;2023-05-24T09:25:51;300.05;;;284.85;;
60973;SDS011;46846;51.528;5.076;2023-05-24T09:28:17;331.45;;;314.63;;
60973;SDS011;46846;51.528;5.076;2023-05-24T09:30:43;326.35;;;309.98;;
60973;SDS011;46846;51.528;5.076;2023-05-24T09:33:10;331.52;;;314.90;;
60973;SDS011;46846;51.528;5.076;2023-05-24T09:35:40;337.08;;;319.80;;
60973;SDS011;46846;51.528;5.076;2023-05-24T09:38:15;309.70;;;293.15;;
60973;SDS011;46846;51.528;5.076;2023-05-24T09:40:44;318.45;;;301.63;;
60973;SDS011;46846;51.528;5.076;2023-05-24T09:43:10;325.88;;;309.42;;
60973;SDS011;46846;51.528;5.076;2023-05-24T09:45:45;317.98;;;302.02;;
60973;SDS011;46846;51.528;5.076;2023-05-24T09:48:15;322.80;;;306.10;;
60973;SDS011;46846;51.528;5.076;2023-05-24T09:50:44;322.25;;;305.60;;
60973;SDS011;46846;51.528;5.076;2023-05-24T09:53:23;348.02;;;330.05;;
60973;SDS011;46846;51.528;5.076;2023-05-24T09:55:49;345.88;;;327.35;;
60973;SDS011;46846;51.528;5.076;2023-05-24T09:58:14;322.75;;;305.88;;
60973;SDS011;46846;51.528;5.076;2023-05-24T10:00:41;324.25;;;307.70;;
60973;SDS011;46846;51.528;5.076;2023-05-24T10:03:07;336.67;;;319.38;;
60973;SDS011;46846;51.528;5.076;2023-05-24T10:05:40;340.15;;;322.95;;
60973;SDS011;46846;51.528;5.076;2023-05-24T10:08:08;327.27;;;310.45;;
60973;SDS011;46846;51.528;5.076;2023-05-24T10:10:34;324.15;;;307.08;;
60973;SDS011;46846;51.528;5.076;2023-05-24T10:13:00;336.10;;;318.75;;
60973;SDS011;46846;51.528;5.076;2023-05-24T10:15:26;337.70;;;320.65;;
60973;SDS011;46846;51.528;5.076;2023-05-24T10:17:52;336.95;;;319.98;;
60973;SDS011;46846;51.528;5.076;2023-05-24T10:20:19;337.73;;;320.27;;
60973;SDS011;46846;51.528;5.076;2023-05-24T10:22:45;342.67;;;324.95;;
60973;SDS011;46846;51.528;5.076;2023-05-24T10:25:31;353.42;;;335.52;;
60973;SDS011;46846;51.528;5.076;2023-05-24T10:28:03;359.55;;;341.27;;
60973;SDS011;46846;51.528;5.076;2023-05-24T10:30:36;348.83;;;330.92;;
60973;SDS011;46846;51.528;5.076;2023-05-24T10:33:22;346.05;;;328.27;;
60973;SDS011;46846;51.528;5.076;2023-05-24T10:35:49;343.65;;;325.67;;
60973;SDS011;46846;51.528;5.076;2023-05-24T10:38:15;353.50;;;335.30;;
60973;SDS011;46846;51.528;5.076;2023-05-24T10:40:41;350.42;;;332.73;;
60973;SDS011;46846;51.528;5.076;2023-05-24T10:43:07;347.15;;;329.70;;
60973;SDS011;46846;51.528;5.076;2023-05-24T10:45:37;374.05;;;355.27;;
60973;SDS011;46846;51.528;5.076;2023-05-24T10:48:46;351.38;;;333.50;;
60973;SDS011;46846;51.528;5.076;2023-05-24T10:50:52;364.63;;;345.52;;
60973;SDS011;46846;51.528;5.076;2023-05-24T10:53:18;351.33;;;333.42;;
60973;SDS011;46846;51.528;5.076;2023-05-24T11:00:56;362.10;;;344.05;;
60973;SDS011;46846;51.528;5.076;2023-05-24T11:03:22;359.15;;;340.38;;
60973;SDS011;46846;51.528;5.076;2023-05-24T11:08:21;358.02;;;339.95;;
60973;SDS011;46846;51.528;5.076;2023-05-24T11:11:06;372.77;;;353.17;;
60973;SDS011;46846;51.528;5.076;2023-05-24T11:13:39;370.35;;;351.45;;
60973;SDS011;46846;51.528;5.076;2023-05-24T11:16:05;369.67;;;350.95;;
60973;SDS011;46846;51.528;5.076;2023-05-24T11:18:31;359.25;;;340.95;;
60973;SDS011;46846;51.528;5.076;2023-05-24T11:21:00;368.20;;;348.70;;
60973;SDS011;46846;51.528;5.076;2023-05-24T11:23:27;376.98;;;357.02;;
60973;SDS011;46846;51.528;5.076;2023-05-24T11:25:55;364.50;;;345.55;;
60973;SDS011;46846;51.528;5.076;2023-05-24T11:28:21;370.15;;;349.60;;
60973;SDS011;46846;51.528;5.076;2023-05-24T11:30:47;368.42;;;349.70;;
60973;SDS011;46846;51.528;5.076;2023-05-24T11:35:38;364.52;;;344.88;;
60973;SDS011;46846;51.528;5.076;2023-05-24T11:38:08;352.20;;;329.77;;
60973;SDS011;46846;51.528;5.076;2023-05-24T11:40:37;381.05;;;361.25;;
60973;SDS011;46846;51.528;5.076;2023-05-24T11:43:08;375.58;;;356.02;;
60973;SDS011;46846;51.528;5.076;2023-05-24T11:45:34;346.50;;;328.73;;
60973;SDS011;46846;51.528;5.076;2023-05-24T11:48:03;369.02;;;350.48;;
60973;SDS011;46846;51.528;5.076;2023-05-24T11:50:29;367.70;;;348.77;;
60973;SDS011;46846;51.528;5.076;2023-05-24T11:53:00;383.27;;;363.20;;
60973;SDS011;46846;51.528;5.076;2023-05-24T11:55:27;362.38;;;340.92;;
60973;SDS011;46846;51.528;5.076;2023-05-24T11:57:53;368.50;;;349.65;;
60973;SDS011;46846;51.528;5.076;2023-05-24T12:00:25;375.08;;;356.23;;
60973;SDS011;46846;51.528;5.076;2023-05-24T12:02:51;369.02;;;349.92;;
60973;SDS011;46846;51.528;5.076;2023-05-24T12:05:20;371.52;;;352.65;;
60973;SDS011;46846;51.528;5.076;2023-05-24T12:07:46;371.13;;;352.67;;
60973;SDS011;46846;51.528;5.076;2023-05-24T12:10:15;386.77;;;367.40;;
60973;SDS011;46846;51.528;5.076;2023-05-24T12:12:43;378.52;;;358.98;;
60973;SDS011;46846;51.528;5.076;2023-05-24T12:15:09;361.75;;;343.30;;
60973;SDS011;46846;51.528;5.076;2023-05-24T12:17:35;379.08;;;359.95;;
60973;SDS011;46846;51.528;5.076;2023-05-24T12:20:01;361.35;;;343.23;;
60973;SDS011;46846;51.528;5.076;2023-05-24T12:22:30;378.50;;;359.30;;
60973;SDS011;46846;51.528;5.076;2023-05-24T12:24:56;370.33;;;351.70;;
60973;SDS011;46846;51.528;5.076;2023-05-24T12:27:28;374.80;;;355.45;;
60973;SDS011;46846;51.528;5.076;2023-05-24T12:29:55;373.00;;;354.48;;
60973;SDS011;46846;51.528;5.076;2023-05-24T12:32:21;373.73;;;354.67;;
60973;SDS011;46846;51.528;5.076;2023-05-24T12:34:48;359.35;;;341.25;;
60973;SDS011;46846;51.528;5.076;2023-05-24T12:37:14;355.45;;;337.50;;
60973;SDS011;46846;51.528;5.076;2023-05-24T12:39:39;369.20;;;350.30;;
60973;SDS011;46846;51.528;5.076;2023-05-24T12:42:06;386.73;;;367.20;;
60973;SDS011;46846;51.528;5.076;2023-05-24T12:44:33;373.27;;;354.48;;
60973;SDS011;46846;51.528;5.076;2023-05-24T12:47:01;367.42;;;348.20;;
60973;SDS011;46846;51.528;5.076;2023-05-24T12:49:27;380.63;;;360.95;;
60973;SDS011;46846;51.528;5.076;2023-05-24T12:51:53;379.83;;;360.48;;
60973;SDS011;46846;51.528;5.076;2023-05-24T12:54:29;382.45;;;362.83;;
60973;SDS011;46846;51.528;5.076;2023-05-24T12:56:55;381.00;;;361.73;;
60973;SDS011;46846;51.528;5.076;2023-05-24T12:59:24;370.75;;;351.88;;
60973;SDS011;46846;51.528;5.076;2023-05-24T13:01:50;387.05;;;366.58;;
60973;SDS011;46846;51.528;5.076;2023-05-24T13:04:16;382.65;;;362.98;;
60973;SDS011;46846;51.528;5.076;2023-05-24T13:06:43;375.90;;;356.83;;
60973;SDS011;46846;51.528;5.076;2023-05-24T13:09:09;374.05;;;355.25;;
60973;SDS011;46846;51.528;5.076;2023-05-24T13:11:35;377.90;;;358.80;;
60973;SDS011;46846;51.528;5.076;2023-05-24T13:14:04;370.30;;;351.42;;
60973;SDS011;46846;51.528;5.076;2023-05-24T13:16:31;378.75;;;359.70;;
60973;SDS011;46846;51.528;5.076;2023-05-24T13:18:57;374.60;;;355.60;;
60973;SDS011;46846;51.528;5.076;2023-05-24T13:21:23;387.85;;;368.15;;
60973;SDS011;46846;51.528;5.076;2023-05-24T13:23:49;378.30;;;359.13;;
60973;SDS011;46846;51.528;5.076;2023-05-24T13:26:14;380.98;;;361.92;;
60973;SDS011;46846;51.528;5.076;2023-05-24T13:28:40;369.65;;;350.65;;
60973;SDS011;46846;51.528;5.076;2023-05-24T13:31:06;385.48;;;366.08;;
60973;SDS011;46846;51.528;5.076;2023-05-24T13:33:32;398.20;;;378.10;;
60973;SDS011;46846;51.528;5.076;2023-05-24T13:35:57;388.25;;;368.08;;
60973;SDS011;46846;51.528;5.076;2023-05-24T13:38:23;380.60;;;361.40;;
60973;SDS011;46846;51.528;5.076;2023-05-24T13:40:49;376.35;;;357.05;;
60973;SDS011;46846;51.528;5.076;2023-05-24T13:43:15;389.88;;;369.83;;
60973;SDS011;46846;51.528;5.076;2023-05-24T13:45:41;396.35;;;376.23;;
60973;SDS011;46846;51.528;5.076;2023-05-24T13:48:06;392.42;;;372.35;;
60973;SDS011;46846;51.528;5.076;2023-05-24T13:50:32;391.95;;;372.40;;
60973;SDS011;46846;51.528;5.076;2023-05-24T13:52:58;363.90;;;345.33;;
60973;SDS011;46846;51.528;5.076;2023-05-24T13:55:26;393.58;;;374.10;;
60973;SDS011;46846;51.528;5.076;2023-05-24T13:57:59;384.75;;;365.15;;
60973;SDS011;46846;51.528;5.076;2023-05-24T14:00:30;372.42;;;353.80;;
60973;SDS011;46846;51.528;5.076;2023-05-24T14:02:56;396.70;;;376.75;;
60973;SDS011;46846;51.528;5.076;2023-05-24T14:05:22;388.27;;;368.92;;
60973;SDS011;46846;51.528;5.076;2023-05-24T14:07:47;386.77;;;367.33;;
60973;SDS011;46846;51.528;5.076;2023-05-24T14:10:13;392.48;;;373.05;;
60973;SDS011;46846;51.528;5.076;2023-05-24T14:12:38;385.83;;;366.75;;
60973;SDS011;46846;51.528;5.076;2023-05-24T14:15:04;388.23;;;368.63;;
60973;SDS011;46846;51.528;5.076;2023-05-24T14:17:30;397.33;;;377.23;;
60973;SDS011;46846;51.528;5.076;2023-05-24T14:19:56;401.05;;;381.20;;
60973;SDS011;46846;51.528;5.076;2023-05-24T14:22:21;393.40;;;373.55;;
60973;SDS011;46846;51.528;5.076;2023-05-24T14:24:49;397.20;;;377.35;;
60973;SDS011;46846;51.528;5.076;2023-05-24T14:27:15;392.45;;;372.05;;
60973;SDS011;46846;51.528;5.076;2023-05-24T14:29:42;390.52;;;370.88;;
60973;SDS011;46846;51.528;5.076;2023-05-24T14:32:07;378.55;;;359.35;;
60973;SDS011;46846;51.528;5.076;2023-05-24T14:34:35;400.25;;;380.50;;
60973;SDS011;46846;51.528;5.076;2023-05-24T14:37:00;402.08;;;382.05;;
60973;SDS011;46846;51.528;5.076;2023-05-24T14:39:26;393.45;;;373.75;;
60973;SDS011;46846;51.528;5.076;2023-05-24T14:41:52;389.15;;;369.52;;
60973;SDS011;46846;51.528;5.076;2023-05-24T14:44:18;402.25;;;381.83;;
60973;SDS011;46846;51.528;5.076;2023-05-24T14:46:44;397.50;;;377.50;;
60973;SDS011;46846;51.528;5.076;2023-05-24T14:49:10;390.67;;;370.83;;
60973;SDS011;46846;51.528;5.076;2023-05-24T14:51:36;393.35;;;373.67;;
60973;SDS011;46846;51.528;5.076;2023-05-24T14:54:02;407.73;;;386.50;;
60973;SDS011;46846;51.528;5.076;2023-05-24T14:56:28;390.67;;;370.77;;
60973;SDS011;46846;51.528;5.076;2023-05-24T14:58:54;391.48;;;371.73;;
60973;SDS011;46846;51.528;5.076;2023-05-24T15:01:19;405.15;;;384.88;;
60973;SDS011;46846;51.528;5.076;2023-05-24T15:03:45;401.85;;;381.95;;
60973;SDS011;46846;51.528;5.076;2023-05-24T15:06:10;398.50;;;378.35;;
60973;SDS011;46846;51.528;5.076;2023-05-24T15:08:36;381.92;;;362.88;;
60973;SDS011;46846;51.528;5.076;2023-05-24T15:11:02;381.02;;;361.98;;
60973;SDS011;46846;51.528;5.076;2023-05-24T15:13:27;373.23;;;354.70;;
60973;SDS011;46846;51.528;5.076;2023-05-24T15:15:53;396.98;;;377.33;;
60973;SDS011;46846;51.528;5.076;2023-05-24T15:18:23;407.92;;;386.85;;
60973;SDS011;46846;51.528;5.076;2023-05-24T15:20:49;394.38;;;374.83;;
60973;SDS011;46846;51.528;5.076;2023-05-24T15:23:15;396.70;;;376.92;;
60973;SDS011;46846;51.528;5.076;2023-05-24T15:25:41;382.15;;;362.92;;
60973;SDS011;46846;51.528;5.076;2023-05-24T15:28:07;399.27;;;379.52;;
60973;SDS011;46846;51.528;5.076;2023-05-24T15:30:34;376.35;;;357.67;;
60973;SDS011;46846;51.528;5.076;2023-05-24T15:33:00;367.35;;;348.73;;
60973;SDS011;46846;51.528;5.076;2023-05-24T15:35:25;371.17;;;352.58;;
60973;SDS011;46846;51.528;5.076;2023-05-24T15:37:51;388.95;;;369.05;;
60973;SDS011;46846;51.528;5.076;2023-05-24T15:40:16;370.10;;;351.27;;
60973;SDS011;46846;51.528;5.076;2023-05-24T15:42:42;390.42;;;370.63;;
60973;SDS011;46846;51.528;5.076;2023-05-24T15:45:09;394.00;;;374.52;;
60973;SDS011;46846;51.528;5.076;2023-05-24T15:47:35;378.52;;;359.23;;
60973;SDS011;46846;51.528;5.076;2023-05-24T15:50:03;393.35;;;373.48;;
60973;SDS011;46846;51.528;5.076;2023-05-24T15:52:30;386.25;;;366.55;;
60973;SDS011;46846;51.528;5.076;2023-05-24T15:54:57;385.27;;;365.73;;
60973;SDS011;46846;51.528;5.076;2023-05-24T15:57:23;410.15;;;390.02;;